sensor_id;sensor_type;location;lat;lon;timestamp;temperature;humidity
18781;DHT22;9519;51.890;8.970;2023-05-24T00:03:15;7.90;99.90
18781;DHT22;9519;51.890;8.970;2023-05-24T00:08:18;7.90;99.90
18781;DHT22;9519;51.890;8.970;2023-05-24T00:13:20;7.80;99.90
18781;DHT22;9519;51.890;8.970;2023-05-24T00:18:23;7.80;99.90
18781;DHT22;9519;51.890;8.970;2023-05-24T00:23:25;7.80;99.90
18781;DHT22;9519;51.890;8.970;2023-05-24T00:28:27;7.80;99.90
18781;DHT22;9519;51.890;8.970;2023-05-24T00:33:32;7.80;99.90
18781;DHT22;9519;51.890;8.970;2023-05-24T00:38:34;7.70;99.90
18781;DHT22;9519;51.890;8.970;2023-05-24T00:43:36;7.70;99.90
18781;DHT22;9519;51.890;8.970;2023-05-24T00:48:40;7.60;99.90
18781;DHT22;9519;51.890;8.970;2023-05-24T00:53:44;7.60;99.90
18781;DHT22;9519;51.890;8.970;2023-05-24T00:58:48;7.60;99.90
18781;DHT22;9519;51.890;8.970;2023-05-24T01:03:55;7.50;99.90
18781;DHT22;9519;51.890;8.970;2023-05-24T01:09:08;7.40;99.90
18781;DHT22;9519;51.890;8.970;2023-05-24T01:14:26;7.30;99.90
18781;DHT22;9519;51.890;8.970;2023-05-24T01:19:42;7.30;99.90
18781;DHT22;9519;51.890;8.970;2023-05-24T01:24:58;7.20;99.90
18781;DHT22;9519;51.890;8.970;2023-05-24T01:30:07;7.20;99.90
18781;DHT22;9519;51.890;8.970;2023-05-24T01:35:09;7.10;99.90
18781;DHT22;9519;51.890;8.970;2023-05-24T01:40:12;7.10;99.90
18781;DHT22;9519;51.890;8.970;2023-05-24T01:45:22;7.00;99.90
18781;DHT22;9519;51.890;8.970;2023-05-24T01:50:33;6.90;99.90
18781;DHT22;9519;51.890;8.970;2023-05-24T01:55:39;6.90;99.90
18781;DHT22;9519;51.890;8.970;2023-05-24T02:00:44;7.20;99.90
18781;DHT22;9519;51.890;8.970;2023-05-24T02:05:47;6.90;99.90
18781;DHT22;9519;51.890;8.970;2023-05-24T02:10:49;7.00;99.90
18781;DHT22;9519;51.890;8.970;2023-05-24T02:15:52;7.00;99.90
18781;DHT22;9519;51.890;8.970;2023-05-24T02:20:54;7.00;99.90
18781;DHT22;9519;51.890;8.970;2023-05-24T02:25:56;7.10;99.90
18781;DHT22;9519;51.890;8.970;2023-05-24T02:31:00;7.10;99.90
18781;DHT22;9519;51.890;8.970;2023-05-24T02:36:02;7.10;99.90
18781;DHT22;9519;51.890;8.970;2023-05-24T02:41:04;7.10;99.90
18781;DHT22;9519;51.890;8.970;2023-05-24T02:46:09;7.20;99.90
18781;DHT22;9519;51.890;8.970;2023-05-24T02:51:11;7.20;99.90
18781;DHT22;9519;51.890;8.970;2023-05-24T02:56:13;7.20;99.90
18781;DHT22;9519;51.890;8.970;2023-05-24T03:01:18;7.20;99.90
18781;DHT22;9519;51.890;8.970;2023-05-24T03:06:21;7.10;99.90
18781;DHT22;9519;51.890;8.970;2023-05-24T03:11:23;7.20;99.90
18781;DHT22;9519;51.890;8.970;2023-05-24T03:16:27;7.10;99.90
18781;DHT22;9519;51.890;8.970;2023-05-24T03:21:29;7.10;99.90
18781;DHT22;9519;51.890;8.970;2023-05-24T03:26:31;7.10;99.90
18781;DHT22;9519;51.890;8.970;2023-05-24T03:31:34;7.10;99.90
18781;DHT22;9519;51.890;8.970;2023-05-24T03:36:38;7.10;99.90
18781;DHT22;9519;51.890;8.970;2023-05-24T03:41:41;7.10;99.90
18781;DHT22;9519;51.890;8.970;2023-05-24T03:46:45;7.10;99.90
18781;DHT22;9519;51.890;8.970;2023-05-24T03:51:47;7.10;99.90
18781;DHT22;9519;51.890;8.970;2023-05-24T03:56:49;7.10;99.90
18781;DHT22;9519;51.890;8.970;2023-05-24T04:01:54;7.10;99.90
18781;DHT22;9519;51.890;8.970;2023-05-24T04:06:56;7.20;99.90
18781;DHT22;9519;51.890;8.970;2023-05-24T04:11:58;7.20;99.90
18781;DHT22;9519;51.890;8.970;2023-05-24T04:17:01;7.30;99.90
18781;DHT22;9519;51.890;8.970;2023-05-24T04:22:05;7.40;99.90
18781;DHT22;9519;51.890;8.970;2023-05-24T04:27:08;7.40;99.90
18781;DHT22;9519;51.890;8.970;2023-05-24T04:32:11;7.50;99.90
18781;DHT22;9519;51.890;8.970;2023-05-24T04:37:14;7.60;99.90
18781;DHT22;9519;51.890;8.970;2023-05-24T04:42:16;7.70;99.90
18781;DHT22;9519;51.890;8.970;2023-05-24T04:47:20;7.70;99.90
18781;DHT22;9519;51.890;8.970;2023-05-24T04:52:24;7.90;99.90
18781;DHT22;9519;51.890;8.970;2023-05-24T04:57:27;8.00;99.90
18781;DHT22;9519;51.890;8.970;2023-05-24T05:02:31;8.10;99.90
18781;DHT22;9519;51.890;8.970;2023-05-24T05:07:33;8.20;99.90
18781;DHT22;9519;51.890;8.970;2023-05-24T05:12:35;8.30;99.90
18781;DHT22;9519;51.890;8.970;2023-05-24T05:17:38;8.40;99.90
18781;DHT22;9519;51.890;8.970;2023-05-24T05:22:44;8.50;99.90
18781;DHT22;9519;51.890;8.970;2023-05-24T05:27:47;8.60;99.90
18781;DHT22;9519;51.890;8.970;2023-05-24T05:32:50;8.70;99.90
18781;DHT22;9519;51.890;8.970;2023-05-24T05:37:52;8.80;99.90
18781;DHT22;9519;51.890;8.970;2023-05-24T05:42:54;8.90;99.90
18781;DHT22;9519;51.890;8.970;2023-05-24T05:47:58;9.00;99.90
18781;DHT22;9519;51.890;8.970;2023-05-24T05:53:00;9.00;99.90
18781;DHT22;9519;51.890;8.970;2023-05-24T05:58:02;9.00;99.90
18781;DHT22;9519;51.890;8.970;2023-05-24T06:03:05;9.10;99.90
18781;DHT22;9519;51.890;8.970;2023-05-24T06:08:07;9.10;99.90
18781;DHT22;9519;51.890;8.970;2023-05-24T06:13:09;9.20;99.90
18781;DHT22;9519;51.890;8.970;2023-05-24T06:18:12;9.30;99.90
18781;DHT22;9519;51.890;8.970;2023-05-24T06:23:14;9.50;99.90
18781;DHT22;9519;51.890;8.970;2023-05-24T06:28:17;9.60;99.90
18781;DHT22;9519;51.890;8.970;2023-05-24T06:33:20;9.80;99.90
18781;DHT22;9519;51.890;8.970;2023-05-24T06:38:23;10.00;99.90
18781;DHT22;9519;51.890;8.970;2023-05-24T06:43:27;10.10;99.90
18781;DHT22;9519;51.890;8.970;2023-05-24T06:48:31;10.10;99.90
18781;DHT22;9519;51.890;8.970;2023-05-24T06:53:33;10.10;99.90
18781;DHT22;9519;51.890;8.970;2023-05-24T06:58:35;10.20;99.90
18781;DHT22;9519;51.890;8.970;2023-05-24T07:03:39;10.30;99.90
18781;DHT22;9519;51.890;8.970;2023-05-24T07:08:43;10.50;99.90
18781;DHT22;9519;51.890;8.970;2023-05-24T07:13:46;10.50;99.90
18781;DHT22;9519;51.890;8.970;2023-05-24T07:18:49;10.60;99.90
18781;DHT22;9519;51.890;8.970;2023-05-24T07:23:51;10.70;99.90
18781;DHT22;9519;51.890;8.970;2023-05-24T07:28:53;10.90;99.90
18781;DHT22;9519;51.890;8.970;2023-05-24T07:33:57;11.10;99.90
18781;DHT22;9519;51.890;8.970;2023-05-24T07:38:59;11.20;99.90
18781;DHT22;9519;51.890;8.970;2023-05-24T07:44:01;11.30;99.90
18781;DHT22;9519;51.890;8.970;2023-05-24T07:49:05;11.30;99.90
18781;DHT22;9519;51.890;8.970;2023-05-24T07:54:07;11.50;99.90
18781;DHT22;9519;51.890;8.970;2023-05-24T07:59:09;11.80;99.90
18781;DHT22;9519;51.890;8.970;2023-05-24T08:04:12;11.90;99.90
18781;DHT22;9519;51.890;8.970;2023-05-24T08:09:14;11.80;99.90
18781;DHT22;9519;51.890;8.970;2023-05-24T08:14:16;11.60;99.90
18781;DHT22;9519;51.890;8.970;2023-05-24T08:19:19;11.70;99.90
18781;DHT22;9519;51.890;8.970;2023-05-24T08:24:22;11.80;99.90
18781;DHT22;9519;51.890;8.970;2023-05-24T08:29:25;11.80;99.90
18781;DHT22;9519;51.890;8.970;2023-05-24T08:34:29;11.80;99.90
18781;DHT22;9519;51.890;8.970;2023-05-24T08:39:31;11.70;99.90
18781;DHT22;9519;51.890;8.970;2023-05-24T08:44:38;11.60;99.90
18781;DHT22;9519;51.890;8.970;2023-05-24T08:49:44;11.50;99.90
18781;DHT22;9519;51.890;8.970;2023-05-24T08:54:48;11.60;99.90
18781;DHT22;9519;51.890;8.970;2023-05-24T08:59:50;11.50;99.90
18781;DHT22;9519;51.890;8.970;2023-05-24T09:04:57;11.60;99.90
18781;DHT22;9519;51.890;8.970;2023-05-24T09:10:03;11.70;99.90
18781;DHT22;9519;51.890;8.970;2023-05-24T09:15:07;11.80;99.90
18781;DHT22;9519;51.890;8.970;2023-05-24T09:20:12;11.80;99.90
18781;DHT22;9519;51.890;8.970;2023-05-24T09:25:14;11.80;99.90
18781;DHT22;9519;51.890;8.970;2023-05-24T09:30:16;11.70;99.90
18781;DHT22;9519;51.890;8.970;2023-05-24T09:35:19;11.80;99.70
18781;DHT22;9519;51.890;8.970;2023-05-24T09:40:22;11.80;99.90
18781;DHT22;9519;51.890;8.970;2023-05-24T09:45:24;11.80;99.70
18781;DHT22;9519;51.890;8.970;2023-05-24T09:50:28;11.70;99.90
18781;DHT22;9519;51.890;8.970;2023-05-24T09:55:34;11.80;99.90
18781;DHT22;9519;51.890;8.970;2023-05-24T10:00:38;11.80;99.90
18781;DHT22;9519;51.890;8.970;2023-05-24T10:05:43;11.70;99.90
18781;DHT22;9519;51.890;8.970;2023-05-24T10:10:46;11.70;99.90
18781;DHT22;9519;51.890;8.970;2023-05-24T10:15:48;11.80;99.90
18781;DHT22;9519;51.890;8.970;2023-05-24T10:20:54;11.80;99.90
18781;DHT22;9519;51.890;8.970;2023-05-24T10:26:02;11.80;99.90
18781;DHT22;9519;51.890;8.970;2023-05-24T10:31:09;11.60;99.90
18781;DHT22;9519;51.890;8.970;2023-05-24T10:36:14;11.40;99.90
18781;DHT22;9519;51.890;8.970;2023-05-24T10:41:18;11.30;99.90
18781;DHT22;9519;51.890;8.970;2023-05-24T10:46:20;11.30;99.90
18781;DHT22;9519;51.890;8.970;2023-05-24T10:51:32;11.50;99.90
18781;DHT22;9519;51.890;8.970;2023-05-24T10:56:39;11.60;99.90
18781;DHT22;9519;51.890;8.970;2023-05-24T11:01:42;11.80;99.90
18781;DHT22;9519;51.890;8.970;2023-05-24T11:06:46;11.90;99.90
18781;DHT22;9519;51.890;8.970;2023-05-24T11:11:53;11.90;99.90
18781;DHT22;9519;51.890;8.970;2023-05-24T11:16:57;12.00;99.90
18781;DHT22;9519;51.890;8.970;2023-05-24T11:22:05;12.00;99.90
18781;DHT22;9519;51.890;8.970;2023-05-24T11:27:10;12.00;99.90
18781;DHT22;9519;51.890;8.970;2023-05-24T11:32:14;12.00;99.90
18781;DHT22;9519;51.890;8.970;2023-05-24T11:37:19;11.90;99.90
18781;DHT22;9519;51.890;8.970;2023-05-24T11:42:22;11.80;99.90
18781;DHT22;9519;51.890;8.970;2023-05-24T11:47:24;11.70;99.90
18781;DHT22;9519;51.890;8.970;2023-05-24T11:52:28;11.70;99.90
18781;DHT22;9519;51.890;8.970;2023-05-24T11:57:37;11.70;99.90
18781;DHT22;9519;51.890;8.970;2023-05-24T12:02:43;11.70;99.90
18781;DHT22;9519;51.890;8.970;2023-05-24T12:07:47;11.60;99.90
18781;DHT22;9519;51.890;8.970;2023-05-24T12:13:02;11.50;99.90
18781;DHT22;9519;51.890;8.970;2023-05-24T12:18:19;11.60;99.90
18781;DHT22;9519;51.890;8.970;2023-05-24T12:23:26;11.70;99.90
18781;DHT22;9519;51.890;8.970;2023-05-24T12:28:34;11.80;99.90
18781;DHT22;9519;51.890;8.970;2023-05-24T12:33:38;12.00;99.90
18781;DHT22;9519;51.890;8.970;2023-05-24T12:38:42;12.20;99.90
18781;DHT22;9519;51.890;8.970;2023-05-24T12:43:44;12.40;99.90
18781;DHT22;9519;51.890;8.970;2023-05-24T12:48:46;12.50;99.90
18781;DHT22;9519;51.890;8.970;2023-05-24T12:53:49;12.60;99.90
18781;DHT22;9519;51.890;8.970;2023-05-24T12:58:51;12.70;99.90
18781;DHT22;9519;51.890;8.970;2023-05-24T13:03:55;12.90;99.90
18781;DHT22;9519;51.890;8.970;2023-05-24T13:08:58;13.00;99.90
18781;DHT22;9519;51.890;8.970;2023-05-24T13:14:02;13.10;99.90
18781;DHT22;9519;51.890;8.970;2023-05-24T13:19:04;13.20;99.90
18781;DHT22;9519;51.890;8.970;2023-05-24T13:24:07;13.10;99.90
18781;DHT22;9519;51.890;8.970;2023-05-24T13:29:10;13.10;99.90
18781;DHT22;9519;51.890;8.970;2023-05-24T13:34:12;12.90;99.90
18781;DHT22;9519;51.890;8.970;2023-05-24T13:39:15;12.80;99.90
18781;DHT22;9519;51.890;8.970;2023-05-24T13:44:19;12.70;99.90
18781;DHT22;9519;51.890;8.970;2023-05-24T13:49:21;12.60;99.90
18781;DHT22;9519;51.890;8.970;2023-05-24T13:54:24;12.60;99.90
18781;DHT22;9519;51.890;8.970;2023-05-24T13:59:27;12.50;99.90
18781;DHT22;9519;51.890;8.970;2023-05-24T14:04:29;12.60;99.90
18781;DHT22;9519;51.890;8.970;2023-05-24T14:09:32;12.60;99.90
18781;DHT22;9519;51.890;8.970;2023-05-24T14:14:35;12.70;99.90
18781;DHT22;9519;51.890;8.970;2023-05-24T14:19:37;12.90;99.90
18781;DHT22;9519;51.890;8.970;2023-05-24T14:24:40;13.20;99.90
18781;DHT22;9519;51.890;8.970;2023-05-24T14:29:42;13.40;99.90
18781;DHT22;9519;51.890;8.970;2023-05-24T14:34:44;13.60;99.90
18781;DHT22;9519;51.890;8.970;2023-05-24T14:39:47;13.80;99.90
18781;DHT22;9519;51.890;8.970;2023-05-24T14:44:49;13.90;99.90
18781;DHT22;9519;51.890;8.970;2023-05-24T14:49:52;13.90;99.90
18781;DHT22;9519;51.890;8.970;2023-05-24T14:54:56;13.90;99.90
18781;DHT22;9519;51.890;8.970;2023-05-24T14:59:58;13.70;99.90
18781;DHT22;9519;51.890;8.970;2023-05-24T15:05:00;13.40;99.90
18781;DHT22;9519;51.890;8.970;2023-05-24T15:10:05;13.20;99.90
18781;DHT22;9519;51.890;8.970;2023-05-24T15:15:08;13.10;99.90
18781;DHT22;9519;51.890;8.970;2023-05-24T15:20:10;13.00;99.90
18781;DHT22;9519;51.890;8.970;2023-05-24T15:25:14;12.90;99.90
18781;DHT22;9519;51.890;8.970;2023-05-24T15:30:17;13.00;99.90
18781;DHT22;9519;51.890;8.970;2023-05-24T15:35:19;13.20;99.90
18781;DHT22;9519;51.890;8.970;2023-05-24T15:40:23;13.30;99.90
18781;DHT22;9519;51.890;8.970;2023-05-24T15:45:25;13.50;99.90
18781;DHT22;9519;51.890;8.970;2023-05-24T15:50:27;13.60;99.90
18781;DHT22;9519;51.890;8.970;2023-05-24T15:55:31;13.80;99.90
18781;DHT22;9519;51.890;8.970;2023-05-24T16:00:36;14.40;99.90
18781;DHT22;9519;51.890;8.970;2023-05-24T16:05:41;15.20;99.90
18781;DHT22;9519;51.890;8.970;2023-05-24T16:10:45;15.60;99.90
18781;DHT22;9519;51.890;8.970;2023-05-24T16:15:48;15.90;99.90
18781;DHT22;9519;51.890;8.970;2023-05-24T16:20:51;16.40;99.90
18781;DHT22;9519;51.890;8.970;2023-05-24T16:25:55;16.70;99.50
18781;DHT22;9519;51.890;8.970;2023-05-24T16:31:00;16.60;98.90
18781;DHT22;9519;51.890;8.970;2023-05-24T16:36:03;16.40;98.90
18781;DHT22;9519;51.890;8.970;2023-05-24T16:41:07;16.20;98.50
18781;DHT22;9519;51.890;8.970;2023-05-24T16:46:10;16.30;98.70
18781;DHT22;9519;51.890;8.970;2023-05-24T16:51:12;16.40;98.30
18781;DHT22;9519;51.890;8.970;2023-05-24T16:56:17;16.30;98.00
18781;DHT22;9519;51.890;8.970;2023-05-24T17:01:20;16.00;98.00
18781;DHT22;9519;51.890;8.970;2023-05-24T17:06:23;15.80;98.20
18781;DHT22;9519;51.890;8.970;2023-05-24T17:11:26;15.70;98.00
18781;DHT22;9519;51.890;8.970;2023-05-24T17:16:28;15.40;97.80
18781;DHT22;9519;51.890;8.970;2023-05-24T17:21:32;15.10;98.00
18781;DHT22;9519;51.890;8.970;2023-05-24T17:26:35;15.00;98.10
18781;DHT22;9519;51.890;8.970;2023-05-24T17:31:38;14.90;98.60
18781;DHT22;9519;51.890;8.970;2023-05-24T17:36:41;15.10;98.70
18781;DHT22;9519;51.890;8.970;2023-05-24T17:41:44;15.30;98.90
18781;DHT22;9519;51.890;8.970;2023-05-24T17:46:46;15.50;98.70
18781;DHT22;9519;51.890;8.970;2023-05-24T17:51:48;15.70;98.60
18781;DHT22;9519;51.890;8.970;2023-05-24T17:56:52;15.70;97.90
18781;DHT22;9519;51.890;8.970;2023-05-24T18:01:54;15.50;97.60
18781;DHT22;9519;51.890;8.970;2023-05-24T18:06:56;15.30;97.50
18781;DHT22;9519;51.890;8.970;2023-05-24T18:11:59;15.20;97.80
18781;DHT22;9519;51.890;8.970;2023-05-24T18:17:01;15.10;98.10
18781;DHT22;9519;51.890;8.970;2023-05-24T18:22:04;15.20;98.30
18781;DHT22;9519;51.890;8.970;2023-05-24T18:27:10;15.10;98.10
18781;DHT22;9519;51.890;8.970;2023-05-24T18:32:12;15.10;98.10
18781;DHT22;9519;51.890;8.970;2023-05-24T18:37:14;15.00;98.10
18781;DHT22;9519;51.890;8.970;2023-05-24T18:42:23;14.90;98.10
18781;DHT22;9519;51.890;8.970;2023-05-24T18:47:26;14.70;98.20
18781;DHT22;9519;51.890;8.970;2023-05-24T18:52:30;14.50;98.40
18781;DHT22;9519;51.890;8.970;2023-05-24T18:57:33;14.40;98.60
18781;DHT22;9519;51.890;8.970;2023-05-24T19:02:36;14.30;98.70
18781;DHT22;9519;51.890;8.970;2023-05-24T19:07:38;14.20;98.80
18781;DHT22;9519;51.890;8.970;2023-05-24T19:12:42;14.10;98.90
18781;DHT22;9519;51.890;8.970;2023-05-24T19:17:45;14.00;99.10
18781;DHT22;9519;51.890;8.970;2023-05-24T19:22:47;14.00;99.20
18781;DHT22;9519;51.890;8.970;2023-05-24T19:27:51;13.90;99.20
18781;DHT22;9519;51.890;8.970;2023-05-24T19:32:53;13.90;99.40
18781;DHT22;9519;51.890;8.970;2023-05-24T19:37:55;13.90;99.40
18781;DHT22;9519;51.890;8.970;2023-05-24T19:42:58;13.80;99.40
18781;DHT22;9519;51.890;8.970;2023-05-24T19:48:00;13.60;99.50
18781;DHT22;9519;51.890;8.970;2023-05-24T19:53:04;13.50;99.60
18781;DHT22;9519;51.890;8.970;2023-05-24T19:58:07;13.40;99.70
18781;DHT22;9519;51.890;8.970;2023-05-24T20:03:09;13.30;99.90
18781;DHT22;9519;51.890;8.970;2023-05-24T20:08:12;13.20;99.90
18781;DHT22;9519;51.890;8.970;2023-05-24T20:13:17;13.20;99.90
18781;DHT22;9519;51.890;8.970;2023-05-24T20:18:19;13.10;99.90
18781;DHT22;9519;51.890;8.970;2023-05-24T20:23:21;13.10;99.90
18781;DHT22;9519;51.890;8.970;2023-05-24T20:28:28;13.00;99.90
18781;DHT22;9519;51.890;8.970;2023-05-24T20:33:30;13.00;99.90
18781;DHT22;9519;51.890;8.970;2023-05-24T20:38:32;12.90;99.90
18781;DHT22;9519;51.890;8.970;2023-05-24T20:43:36;12.90;99.90
18781;DHT22;9519;51.890;8.970;2023-05-24T20:48:38;12.80;99.90
18781;DHT22;9519;51.890;8.970;2023-05-24T20:53:41;12.80;99.90
18781;DHT22;9519;51.890;8.970;2023-05-24T20:58:46;12.70;99.90
18781;DHT22;9519;51.890;8.970;2023-05-24T21:03:52;12.50;99.90
18781;DHT22;9519;51.890;8.970;2023-05-24T21:08:54;12.40;99.90
18781;DHT22;9519;51.890;8.970;2023-05-24T21:13:59;12.20;99.90
18781;DHT22;9519;51.890;8.970;2023-05-24T21:19:01;12.10;99.90
18781;DHT22;9519;51.890;8.970;2023-05-24T21:24:03;12.00;99.90
18781;DHT22;9519;51.890;8.970;2023-05-24T21:29:09;12.00;99.90
18781;DHT22;9519;51.890;8.970;2023-05-24T21:34:12;11.90;99.90
18781;DHT22;9519;51.890;8.970;2023-05-24T21:39:14;11.80;99.90
18781;DHT22;9519;51.890;8.970;2023-05-24T21:44:17;11.70;99.90
18781;DHT22;9519;51.890;8.970;2023-05-24T21:49:19;11.60;99.90
18781;DHT22;9519;51.890;8.970;2023-05-24T21:54:21;11.40;99.90
18781;DHT22;9519;51.890;8.970;2023-05-24T21:59:27;11.30;99.90
18781;DHT22;9519;51.890;8.970;2023-05-24T22:04:29;11.20;99.90
18781;DHT22;9519;51.890;8.970;2023-05-24T22:09:31;11.10;99.90
18781;DHT22;9519;51.890;8.970;2023-05-24T22:14:35;11.10;99.90
18781;DHT22;9519;51.890;8.970;2023-05-24T22:19:37;11.00;99.90
18781;DHT22;9519;51.890;8.970;2023-05-24T22:24:40;10.90;99.90
18781;DHT22;9519;51.890;8.970;2023-05-24T22:29:44;10.80;99.90
18781;DHT22;9519;51.890;8.970;2023-05-24T22:34:46;10.80;99.90
18781;DHT22;9519;51.890;8.970;2023-05-24T22:39:48;10.60;99.90
18781;DHT22;9519;51.890;8.970;2023-05-24T22:44:51;10.50;99.90
18781;DHT22;9519;51.890;8.970;2023-05-24T22:49:53;10.50;99.90
18781;DHT22;9519;51.890;8.970;2023-05-24T22:54:55;10.40;99.90
18781;DHT22;9519;51.890;8.970;2023-05-24T22:59:58;10.40;99.90
18781;DHT22;9519;51.890;8.970;2023-05-24T23:05:00;10.30;99.90
18781;DHT22;9519;51.890;8.970;2023-05-24T23:10:03;10.30;99.90
18781;DHT22;9519;51.890;8.970;2023-05-24T23:15:08;10.20;99.90
18781;DHT22;9519;51.890;8.970;2023-05-24T23:20:11;10.20;99.90
18781;DHT22;9519;51.890;8.970;2023-05-24T23:25:14;10.10;99.90
18781;DHT22;9519;51.890;8.970;2023-05-24T23:30:18;10.00;99.90
18781;DHT22;9519;51.890;8.970;2023-05-24T23:35:20;10.00;99.90
18781;DHT22;9519;51.890;8.970;2023-05-24T23:40:21;9.90;99.90
18781;DHT22;9519;51.890;8.970;2023-05-24T23:45:27;9.90;99.90
18781;DHT22;9519;51.890;8.970;2023-05-24T23:50:29;9.90;99.90
18781;DHT22;9519;51.890;8.970;2023-05-24T23:55:31;9.90;99.90
